createdAt,value
2023-04-19T00:01:43.620Z,15.90
2023-04-19T00:04:10.850Z,15.90
2023-04-19T00:06:37.904Z,15.90
2023-04-19T00:09:05.365Z,16.00
2023-04-19T00:11:33.186Z,16.00
2023-04-19T00:14:00.504Z,16.10
2023-04-19T00:16:27.536Z,16.00
2023-04-19T00:18:54.497Z,16.00
2023-04-19T00:21:21.530Z,16.00
2023-04-19T00:23:48.445Z,16.00
2023-04-19T00:26:18.096Z,16.00
2023-04-19T00:28:49.737Z,16.00
2023-04-19T00:31:16.869Z,15.90
2023-04-19T00:33:43.937Z,15.90
2023-04-19T00:36:10.984Z,15.90
2023-04-19T00:38:39.175Z,15.90
2023-04-19T00:41:06.202Z,16.00
2023-04-19T00:43:33.203Z,16.00
2023-04-19T00:46:01.108Z,16.00
2023-04-19T00:48:28.798Z,16.10
2023-04-19T00:50:56.030Z,16.00
2023-04-19T00:53:22.949Z,16.00
2023-04-19T00:55:53.189Z,16.00
2023-04-19T00:58:20.201Z,16.00
2023-04-19T01:00:48.168Z,16.10
2023-04-19T01:03:17.089Z,16.10
2023-04-19T01:05:44.145Z,16.10
2023-04-19T01:08:13.101Z,16.10
2023-04-19T01:10:40.187Z,16.10
2023-04-19T01:13:08.871Z,16.10
2023-04-19T01:15:38.125Z,16.10
2023-04-19T01:18:05.479Z,16.00
2023-04-19T01:20:32.523Z,16.00
2023-04-19T01:22:59.524Z,16.00
2023-04-19T01:25:27.771Z,16.00
2023-04-19T01:27:54.710Z,16.00
2023-04-19T01:30:24.086Z,16.10
2023-04-19T01:32:51.038Z,16.00
2023-04-19T01:35:18.206Z,16.00
2023-04-19T01:37:45.170Z,16.00
2023-04-19T01:40:12.613Z,15.90
2023-04-19T01:42:39.589Z,15.90
2023-04-19T01:45:07.045Z,15.90
2023-04-19T01:47:33.990Z,15.90
2023-04-19T01:50:02.619Z,15.80
2023-04-19T01:52:29.724Z,15.80
2023-04-19T01:54:56.641Z,15.80
2023-04-19T01:57:23.585Z,15.80
2023-04-19T01:59:51.500Z,15.80
2023-04-19T02:02:18.603Z,15.80
2023-04-19T02:04:45.781Z,15.80
2023-04-19T02:07:12.777Z,15.80
2023-04-19T02:09:39.788Z,15.80
2023-04-19T02:12:07.154Z,15.80
2023-04-19T02:14:35.181Z,15.80
2023-04-19T02:17:02.233Z,15.90
2023-04-19T02:19:29.190Z,15.90
2023-04-19T02:21:57.825Z,15.90
2023-04-19T02:24:25.400Z,15.80
2023-04-19T02:26:52.476Z,15.80
2023-04-19T02:29:19.481Z,15.80
2023-04-19T02:31:46.661Z,15.80
2023-04-19T02:34:14.020Z,15.80
2023-04-19T02:36:41.218Z,15.90
2023-04-19T02:39:08.502Z,15.90
2023-04-19T02:41:38.217Z,15.90
2023-04-19T02:44:05.542Z,16.00
2023-04-19T02:46:32.589Z,16.00
2023-04-19T02:49:01.250Z,16.00
2023-04-19T02:51:28.341Z,16.00
2023-04-19T02:53:55.557Z,16.00
2023-04-19T02:56:22.507Z,16.00
2023-04-19T02:58:49.580Z,16.00
2023-04-19T03:01:16.665Z,16.00
2023-04-19T03:03:43.688Z,16.00
2023-04-19T03:06:11.157Z,16.10
2023-04-19T03:08:47.582Z,16.00
2023-04-19T03:11:17.276Z,16.00
2023-04-19T03:13:44.400Z,16.00
2023-04-19T03:16:13.188Z,16.00
2023-04-19T03:18:41.381Z,16.10
2023-04-19T03:21:09.639Z,16.00
2023-04-19T03:23:46.473Z,15.90
2023-04-19T03:26:14.274Z,15.90
2023-04-19T03:28:45.504Z,15.90
2023-04-19T03:31:27.706Z,16.00
2023-04-19T03:33:54.858Z,16.00
2023-04-19T03:36:27.246Z,16.00
2023-04-19T03:38:54.274Z,16.00
2023-04-19T03:41:26.871Z,16.10
2023-04-19T03:44:10.375Z,16.00
2023-04-19T03:46:38.584Z,16.00
2023-04-19T03:49:06.151Z,16.10
2023-04-19T03:51:33.459Z,16.00
2023-04-19T03:54:00.936Z,16.00
2023-04-19T03:56:29.316Z,16.10
2023-04-19T03:58:56.525Z,16.00
2023-04-19T04:01:24.400Z,16.10
2023-04-19T04:03:53.290Z,16.10
2023-04-19T04:06:20.692Z,16.10
2023-04-19T04:08:47.924Z,16.10
2023-04-19T04:11:15.166Z,16.00
2023-04-19T04:13:43.323Z,16.10
2023-04-19T04:16:20.775Z,16.00
2023-04-19T04:18:49.056Z,15.90
2023-04-19T04:21:16.287Z,15.90
2023-04-19T04:23:47.234Z,16.00
2023-04-19T04:26:22.018Z,15.90
2023-04-19T04:29:03.969Z,15.90
2023-04-19T04:31:32.037Z,15.90
2023-04-19T04:33:59.312Z,15.90
2023-04-19T04:36:26.344Z,15.90
2023-04-19T04:38:54.627Z,15.80
2023-04-19T04:41:22.887Z,15.80
2023-04-19T04:44:04.602Z,15.80
2023-04-19T04:46:38.268Z,15.80
2023-04-19T04:49:06.565Z,15.80
2023-04-19T04:51:34.348Z,15.80
2023-04-19T04:54:01.425Z,15.70
2023-04-19T04:56:29.065Z,15.70
2023-04-19T04:58:57.135Z,15.70
2023-04-19T05:01:30.667Z,15.60
2023-04-19T05:04:00.370Z,15.50
2023-04-19T05:06:27.436Z,15.60
2023-04-19T05:08:54.589Z,15.60
2023-04-19T05:11:30.391Z,15.60
2023-04-19T05:13:57.649Z,15.50
2023-04-19T05:16:25.792Z,15.40
2023-04-19T05:18:53.322Z,15.40
2023-04-19T05:21:21.850Z,15.40
2023-04-19T05:23:48.904Z,15.30
2023-04-19T05:26:16.183Z,15.10
2023-04-19T05:28:45.476Z,14.70
2023-04-19T05:31:21.173Z,14.40
2023-04-19T05:34:11.472Z,14.40
2023-04-19T05:36:38.569Z,14.10
2023-04-19T05:39:05.879Z,14.00
2023-04-19T05:41:33.033Z,13.90
2023-04-19T05:44:00.039Z,13.90
2023-04-19T05:46:27.243Z,13.90
2023-04-19T05:48:56.125Z,13.90
2023-04-19T05:51:41.449Z,13.80
2023-04-19T05:54:14.696Z,13.70
2023-04-19T05:56:45.470Z,13.80
2023-04-19T05:59:14.144Z,13.80
2023-04-19T06:01:41.430Z,13.90
2023-04-19T06:04:08.716Z,14.30
2023-04-19T06:06:38.160Z,14.60
2023-04-19T06:09:07.188Z,14.70
2023-04-19T06:11:42.869Z,14.90
2023-04-19T06:14:14.836Z,15.10
2023-04-19T06:16:42.658Z,15.20
2023-04-19T06:19:09.714Z,15.30
2023-04-19T06:21:36.897Z,15.40
2023-04-19T06:24:04.527Z,15.30
2023-04-19T06:26:31.444Z,15.40
2023-04-19T06:28:58.499Z,15.30
2023-04-19T06:31:25.605Z,15.30
2023-04-19T06:33:52.608Z,15.30
2023-04-19T06:36:20.064Z,15.30
2023-04-19T06:38:47.033Z,15.40
2023-04-19T06:41:14.043Z,15.30
2023-04-19T06:43:42.784Z,15.30
2023-04-19T06:46:10.063Z,15.40
2023-04-19T06:48:37.257Z,15.40
2023-04-19T06:51:04.392Z,15.40
2023-04-19T06:53:31.392Z,15.40
2023-04-19T06:56:04.278Z,15.40
2023-04-19T06:58:35.500Z,15.40
2023-04-19T07:01:04.645Z,15.50
2023-04-19T07:03:32.456Z,15.60
2023-04-19T07:05:59.590Z,15.50
2023-04-19T07:08:34.901Z,15.60
2023-04-19T07:11:09.716Z,15.70
2023-04-19T07:13:37.102Z,15.60
2023-04-19T07:16:08.070Z,15.60
2023-04-19T07:18:35.171Z,15.70
2023-04-19T07:21:02.336Z,15.80
2023-04-19T07:23:30.905Z,15.80
2023-04-19T07:25:57.947Z,15.90
2023-04-19T07:28:24.977Z,15.90
2023-04-19T07:30:51.895Z,15.90
2023-04-19T07:33:18.928Z,15.90
2023-04-19T07:35:46.092Z,15.90
2023-04-19T07:38:13.118Z,15.80
2023-04-19T07:40:40.154Z,15.80
2023-04-19T07:43:07.078Z,15.90
2023-04-19T07:45:34.021Z,16.00
2023-04-19T07:48:01.107Z,16.10
2023-04-19T07:50:28.156Z,16.20
2023-04-19T07:52:56.750Z,16.30
2023-04-19T07:55:23.814Z,16.30
2023-04-19T07:57:50.777Z,16.40
2023-04-19T08:00:18.968Z,16.40
2023-04-19T08:02:47.288Z,16.50
2023-04-19T08:05:17.634Z,16.60
2023-04-19T08:07:45.834Z,16.70
2023-04-19T08:10:14.986Z,16.80
2023-04-19T08:12:57.047Z,16.80
2023-04-19T08:16:14.863Z,16.90
2023-04-19T08:18:16.198Z,17.00
2023-04-19T08:20:43.197Z,17.00
2023-04-19T08:23:22.374Z,17.00
2023-04-19T08:25:51.522Z,17.10
2023-04-19T08:28:19.396Z,17.30
2023-04-19T08:30:46.487Z,17.30
2023-04-19T08:33:13.568Z,17.40
2023-04-19T08:35:41.558Z,17.40
2023-04-19T08:38:09.105Z,17.50
2023-04-19T08:40:39.262Z,17.50
2023-04-19T08:43:07.251Z,17.50
2023-04-19T08:45:35.773Z,17.50
2023-04-19T08:48:04.200Z,17.50
2023-04-19T08:50:38.908Z,17.60
2023-04-19T08:53:24.730Z,17.60
2023-04-19T08:56:10.664Z,17.60
2023-04-19T09:01:33.086Z,17.70
2023-04-19T09:04:34.054Z,17.80
2023-04-19T09:06:55.911Z,17.90
2023-04-19T09:11:55.309Z,17.90
2023-04-19T09:14:23.471Z,17.90
2023-04-19T09:16:52.270Z,17.90
2023-04-19T09:19:24.841Z,18.00
2023-04-19T09:21:54.434Z,18.00
2023-04-19T09:25:14.500Z,18.00
2023-04-19T09:27:34.253Z,18.00
2023-04-19T09:30:03.354Z,17.90
2023-04-19T09:32:49.054Z,18.00
2023-04-19T09:35:16.602Z,18.10
2023-04-19T09:38:05.396Z,18.10
2023-04-19T09:40:34.180Z,18.10
2023-04-19T09:45:46.479Z,18.20
2023-04-19T09:48:14.084Z,18.20
2023-04-19T09:51:03.769Z,18.10
2023-04-19T09:53:35.039Z,18.30
2023-04-19T09:56:04.186Z,18.20
2023-04-19T10:01:13.961Z,18.10
2023-04-19T10:03:45.575Z,18.20
2023-04-19T10:06:39.968Z,18.20
2023-04-19T10:09:05.262Z,18.30
2023-04-19T10:11:40.272Z,18.30
2023-04-19T10:14:11.742Z,18.40
2023-04-19T10:16:39.491Z,18.40
2023-04-19T10:19:10.958Z,18.40
2023-04-19T10:21:39.693Z,18.40
2023-04-19T10:24:07.354Z,18.40
2023-04-19T10:27:04.980Z,18.40
2023-04-19T10:30:00.872Z,18.40
2023-04-19T10:32:39.170Z,18.40
2023-04-19T10:35:20.561Z,18.40
2023-04-19T10:38:09.008Z,18.40
2023-04-19T10:40:56.645Z,18.30
2023-04-19T10:43:25.370Z,18.20
2023-04-19T10:45:52.882Z,18.20
2023-04-19T10:48:33.262Z,18.20
2023-04-19T10:51:20.461Z,18.20
2023-04-19T10:54:01.860Z,18.30
2023-04-19T10:56:34.827Z,18.40
2023-04-19T10:59:07.901Z,18.50
2023-04-19T11:01:45.682Z,18.50
2023-04-19T11:04:16.654Z,18.60
2023-04-19T11:06:53.191Z,18.50
2023-04-19T11:09:28.898Z,18.50
2023-04-19T11:12:10.725Z,18.50
2023-04-19T11:14:43.299Z,18.60
2023-04-19T11:17:28.041Z,18.50
2023-04-19T11:19:59.206Z,18.50
2023-04-19T11:22:46.783Z,18.40
2023-04-19T11:25:20.078Z,18.40
2023-04-19T11:27:49.526Z,18.40
2023-04-19T11:30:22.774Z,18.40
2023-04-19T11:32:54.818Z,18.60
2023-04-19T11:35:24.087Z,18.60
2023-04-19T11:37:51.426Z,18.60
2023-04-19T11:40:20.515Z,18.50
2023-04-19T11:42:53.420Z,18.50
2023-04-19T11:45:38.538Z,18.40
2023-04-19T11:48:08.371Z,18.50
2023-04-19T11:50:45.842Z,18.40
2023-04-19T11:53:21.757Z,18.30
2023-04-19T11:55:53.502Z,18.20
2023-04-19T11:58:29.516Z,18.20
2023-04-19T12:01:04.857Z,18.30
2023-04-19T12:03:32.524Z,18.40
2023-04-19T12:06:04.396Z,18.50
2023-04-19T12:08:36.584Z,18.50
2023-04-19T12:11:05.063Z,18.30
2023-04-19T12:13:33.142Z,18.30
2023-04-19T12:16:00.426Z,18.30
2023-04-19T12:18:27.598Z,18.30
2023-04-19T12:20:55.008Z,18.30
2023-04-19T12:23:22.143Z,18.30
2023-04-19T12:25:50.061Z,18.40
2023-04-19T12:28:17.225Z,18.40
2023-04-19T12:30:44.612Z,18.50
2023-04-19T12:33:11.740Z,18.50
2023-04-19T12:35:39.658Z,18.60
2023-04-19T12:38:06.700Z,18.50
2023-04-19T12:40:35.604Z,18.50
2023-04-19T12:43:02.505Z,18.50
2023-04-19T12:45:29.643Z,18.40
2023-04-19T12:47:57.083Z,18.40
2023-04-19T12:50:24.277Z,18.40
2023-04-19T12:52:53.685Z,18.30
2023-04-19T12:55:20.846Z,18.20
2023-04-19T12:57:47.886Z,18.30
2023-04-19T13:00:15.986Z,18.20
2023-04-19T13:02:43.365Z,18.20
2023-04-19T13:05:13.008Z,18.20
2023-04-19T13:07:40.425Z,18.10
2023-04-19T13:10:08.002Z,18.20
2023-04-19T13:12:35.800Z,18.10
2023-04-19T13:15:04.510Z,18.00
2023-04-19T13:17:32.169Z,18.00
2023-04-19T13:19:59.202Z,18.00
2023-04-19T13:22:26.840Z,17.90
2023-04-19T13:24:53.826Z,17.80
2023-04-19T13:27:21.029Z,17.90
2023-04-19T13:29:48.108Z,17.80
2023-04-19T13:32:15.125Z,17.70
2023-04-19T13:34:42.067Z,17.90
2023-04-19T13:37:09.182Z,17.80
2023-04-19T13:39:37.301Z,17.70
2023-04-19T13:42:04.650Z,17.50
2023-04-19T13:44:31.905Z,17.50
2023-04-19T13:46:59.192Z,17.70
2023-04-19T13:49:26.526Z,17.70
2023-04-19T13:51:53.550Z,17.70
2023-04-19T13:54:21.316Z,17.70
2023-04-19T13:56:51.359Z,17.60
2023-04-19T13:59:19.263Z,17.60
2023-04-19T14:01:46.237Z,17.70
2023-04-19T14:04:13.524Z,17.80
2023-04-19T14:06:41.575Z,17.90
2023-04-19T14:09:08.776Z,18.00
2023-04-19T14:11:37.792Z,18.10
2023-04-19T14:14:04.738Z,18.20
2023-04-19T14:16:31.665Z,18.20
2023-04-19T14:18:58.856Z,18.20
2023-04-19T14:21:28.255Z,18.20
2023-04-19T14:23:55.901Z,18.20
2023-04-19T14:26:24.290Z,18.00
2023-04-19T14:28:52.404Z,18.20
2023-04-19T14:31:19.503Z,18.30
2023-04-19T14:33:46.504Z,18.20
2023-04-19T14:36:13.486Z,18.00
2023-04-19T14:38:40.619Z,18.00
2023-04-19T14:41:07.806Z,17.90
2023-04-19T14:43:34.980Z,18.00
2023-04-19T14:46:02.015Z,18.20
2023-04-19T14:48:29.333Z,18.20
2023-04-19T14:50:56.286Z,18.40
2023-04-19T14:53:23.418Z,18.40
2023-04-19T14:55:50.409Z,18.30
2023-04-19T14:58:17.958Z,18.30
2023-04-19T15:00:44.956Z,18.10
2023-04-19T15:03:12.499Z,17.90
2023-04-19T15:05:39.605Z,18.00
2023-04-19T15:08:09.104Z,18.00
2023-04-19T15:10:41.880Z,17.90
2023-04-19T15:13:09.621Z,17.70
2023-04-19T15:15:36.734Z,17.70
2023-04-19T15:18:03.831Z,17.60
2023-04-19T15:20:31.533Z,17.60
2023-04-19T15:22:58.607Z,17.60
2023-04-19T15:25:26.162Z,17.40
2023-04-19T15:27:53.256Z,17.40
2023-04-19T15:30:20.782Z,17.40
2023-04-19T15:32:47.757Z,17.50
2023-04-19T15:35:14.915Z,17.70
2023-04-19T15:37:43.804Z,17.70
2023-04-19T15:40:12.664Z,17.70
2023-04-19T15:42:40.205Z,17.80
2023-04-19T15:45:07.912Z,17.90
2023-04-19T15:47:35.482Z,17.70
2023-04-19T15:50:04.161Z,17.60
2023-04-19T15:52:31.277Z,17.60
2023-04-19T15:54:58.265Z,17.70
2023-04-19T15:57:25.684Z,17.90
2023-04-19T15:59:52.954Z,18.00
2023-04-19T16:02:20.129Z,18.10
2023-04-19T16:04:48.526Z,17.70
2023-04-19T16:07:16.610Z,17.70
2023-04-19T16:09:43.675Z,17.80
2023-04-19T16:12:10.592Z,17.70
2023-04-19T16:14:37.967Z,17.80
2023-04-19T16:17:08.458Z,17.80
2023-04-19T16:19:38.110Z,17.90
2023-04-19T16:22:05.536Z,17.90
2023-04-19T16:24:32.609Z,17.90
2023-04-19T16:26:59.581Z,18.00
2023-04-19T16:29:27.290Z,17.90
2023-04-19T16:31:54.283Z,17.80
2023-04-19T16:34:21.295Z,18.10
2023-04-19T16:36:48.323Z,18.10
2023-04-19T16:39:15.963Z,18.10
2023-04-19T16:41:43.929Z,18.00
2023-04-19T16:44:11.922Z,17.90
2023-04-19T16:46:39.159Z,17.80
2023-04-19T16:49:06.129Z,17.60
2023-04-19T16:51:33.171Z,17.70
2023-04-19T16:54:00.260Z,17.90
2023-04-19T16:56:27.186Z,18.00
2023-04-19T16:58:56.485Z,18.00
2023-04-19T17:01:23.910Z,18.10
2023-04-19T17:03:51.310Z,18.20
2023-04-19T17:06:18.465Z,18.20
2023-04-19T17:08:45.431Z,18.20
2023-04-19T17:11:12.540Z,18.00
2023-04-19T17:13:40.078Z,17.80
2023-04-19T17:16:07.592Z,17.80
2023-04-19T17:18:34.782Z,17.90
2023-04-19T17:21:02.494Z,17.90
2023-04-19T17:23:29.496Z,17.90
2023-04-19T17:25:56.570Z,17.80
2023-04-19T17:28:23.546Z,17.80
2023-04-19T17:30:50.616Z,17.80
2023-04-19T17:33:17.630Z,17.80
2023-04-19T17:35:44.862Z,17.70
2023-04-19T17:38:12.601Z,17.60
2023-04-19T17:40:39.613Z,17.60
2023-04-19T17:43:06.721Z,17.60
2023-04-19T17:45:34.313Z,17.60
2023-04-19T17:48:02.245Z,17.50
2023-04-19T17:50:30.081Z,17.40
2023-04-19T17:52:57.814Z,17.50
2023-04-19T17:55:25.669Z,17.50
2023-04-19T17:57:52.666Z,17.30
2023-04-19T18:00:19.941Z,17.10
2023-04-19T18:02:48.782Z,17.00
2023-04-19T18:05:15.948Z,17.00
2023-04-19T18:07:42.932Z,17.00
2023-04-19T18:10:10.569Z,17.00
2023-04-19T18:12:37.749Z,16.90
2023-04-19T18:15:06.411Z,16.80
2023-04-19T18:17:33.522Z,16.70
2023-04-19T18:20:02.034Z,16.70
2023-04-19T18:22:29.045Z,16.50
2023-04-19T18:24:56.931Z,16.40
2023-04-19T18:27:23.947Z,16.40
2023-04-19T18:29:52.338Z,16.40
2023-04-19T18:32:19.627Z,16.40
2023-04-19T18:34:47.425Z,16.40
2023-04-19T18:37:17.706Z,16.40
2023-04-19T18:39:45.460Z,16.50
2023-04-19T18:42:12.666Z,16.60
2023-04-19T18:44:52.862Z,16.80
2023-04-19T18:47:22.060Z,16.70
2023-04-19T18:50:02.772Z,16.80
2023-04-19T18:52:33.055Z,16.90
2023-04-19T18:55:06.382Z,16.70
2023-04-19T18:57:35.468Z,16.70
2023-04-19T19:00:06.021Z,16.70
2023-04-19T19:02:34.446Z,16.60
2023-04-19T19:05:02.512Z,16.50
2023-04-19T19:10:02.513Z,16.40
2023-04-19T19:12:36.615Z,16.40
2023-04-19T19:15:04.460Z,16.50
2023-04-19T19:17:32.100Z,16.50
2023-04-19T19:19:59.134Z,16.50
2023-04-19T19:22:29.009Z,16.60
2023-04-19T19:24:56.780Z,16.70
2023-04-19T19:27:24.037Z,16.60
2023-04-19T19:29:51.004Z,16.50
2023-04-19T19:32:22.116Z,16.50
2023-04-19T19:37:20.393Z,16.50
2023-04-19T19:39:47.317Z,16.40
2023-04-19T19:42:31.595Z,16.50
2023-04-19T19:45:02.337Z,16.50
2023-04-19T19:47:31.661Z,16.60
2023-04-19T19:52:32.049Z,16.60
2023-04-19T19:55:00.059Z,16.50
2023-04-19T20:00:12.994Z,16.40
2023-04-19T20:02:55.068Z,16.40
2023-04-19T20:05:23.939Z,16.30
2023-04-19T20:10:21.279Z,16.40
2023-04-19T20:12:48.535Z,16.30
2023-04-19T20:15:15.946Z,16.30
2023-04-19T20:17:43.805Z,16.10
2023-04-19T20:20:11.722Z,16.10
2023-04-19T20:22:38.804Z,16.20
2023-04-19T20:25:06.626Z,16.20
2023-04-19T20:27:34.083Z,16.20
2023-04-19T20:30:01.213Z,16.30
2023-04-19T20:32:28.347Z,16.30
2023-04-19T20:34:55.569Z,16.40
2023-04-19T20:37:22.611Z,16.30
2023-04-19T20:39:49.799Z,16.30
2023-04-19T20:42:16.849Z,16.00
2023-04-19T20:44:44.480Z,15.70
2023-04-19T20:47:13.264Z,15.60
2023-04-19T20:49:41.150Z,15.60
2023-04-19T20:52:08.205Z,15.70
2023-04-19T20:54:36.615Z,15.70
2023-04-19T20:57:04.695Z,15.70
2023-04-19T20:59:31.941Z,15.70
2023-04-19T21:02:00.215Z,15.60
2023-04-19T21:04:27.484Z,15.40
2023-04-19T21:06:54.681Z,15.20
2023-04-19T21:09:21.727Z,15.10
2023-04-19T21:11:48.918Z,15.00
2023-04-19T21:14:15.914Z,14.90
2023-04-19T21:16:42.832Z,15.00
2023-04-19T21:19:09.991Z,15.10
2023-04-19T21:21:37.011Z,15.20
2023-04-19T21:24:04.205Z,15.30
2023-04-19T21:26:31.159Z,15.30
2023-04-19T21:28:58.121Z,15.30
2023-04-19T21:31:25.525Z,15.20
2023-04-19T21:33:52.674Z,15.20
2023-04-19T21:36:19.619Z,15.30
2023-04-19T21:38:47.002Z,15.40
2023-04-19T21:41:13.940Z,15.40
2023-04-19T21:43:43.554Z,15.30
2023-04-19T21:46:10.701Z,15.30
2023-04-19T21:48:37.710Z,15.40
2023-04-19T21:51:04.999Z,15.40
2023-04-19T21:53:32.150Z,15.40
2023-04-19T21:55:59.062Z,15.30
2023-04-19T21:58:26.039Z,15.30
2023-04-19T22:00:53.743Z,15.30
2023-04-19T22:03:21.113Z,15.40
2023-04-19T22:05:48.173Z,15.40
2023-04-19T22:08:18.045Z,15.40
2023-04-19T22:10:46.381Z,15.40
2023-04-19T22:13:14.013Z,15.40
2023-04-19T22:15:41.079Z,15.30
2023-04-19T22:18:08.714Z,15.20
2023-04-19T22:20:35.888Z,15.20
2023-04-19T22:23:02.814Z,15.20
2023-04-19T22:25:30.014Z,15.10
2023-04-19T22:27:56.943Z,15.20
2023-04-19T22:30:24.058Z,15.20
2023-04-19T22:32:51.219Z,15.20
2023-04-19T22:35:19.122Z,15.10
2023-04-19T22:37:47.645Z,15.00
2023-04-19T22:40:14.660Z,15.00
2023-04-19T22:42:41.583Z,15.10
2023-04-19T22:45:09.223Z,15.10
2023-04-19T22:47:37.398Z,15.10
2023-04-19T22:50:05.153Z,15.10
2023-04-19T22:52:32.196Z,15.00
2023-04-19T22:54:59.131Z,15.00
2023-04-19T22:57:26.188Z,14.80
2023-04-19T22:59:53.093Z,14.90
2023-04-19T23:02:20.023Z,14.90
2023-04-19T23:04:49.193Z,15.00
2023-04-19T23:07:16.239Z,15.00
2023-04-19T23:09:43.277Z,15.00
2023-04-19T23:12:10.222Z,15.00
2023-04-19T23:14:38.861Z,14.90
2023-04-19T23:17:06.137Z,14.90
2023-04-19T23:19:33.223Z,15.00
2023-04-19T23:22:00.343Z,15.00
2023-04-19T23:24:27.299Z,15.00
2023-04-19T23:26:54.272Z,15.00
2023-04-19T23:29:21.376Z,15.10
2023-04-19T23:31:48.458Z,15.00
2023-04-19T23:34:16.607Z,15.00
2023-04-19T23:36:43.666Z,15.00
2023-04-19T23:39:10.810Z,15.00
2023-04-19T23:41:37.838Z,14.90
2023-04-19T23:44:04.893Z,14.90
2023-04-19T23:46:31.903Z,14.90
2023-04-19T23:48:58.861Z,14.80
2023-04-19T23:51:25.944Z,14.80
2023-04-19T23:53:52.846Z,14.80
2023-04-19T23:56:19.833Z,14.70
2023-04-19T23:58:46.743Z,14.60
